Site contains unofficial IBTrACS data. Visit the IBTrACS Website to access archived data.

1945 Severe Tropical Cyclone NOT_NAMED (1945029S13127)


IBTrACS version v04r00. Visit IBTrACS website for data access.
Please direct all questions to the IBTrACS Q and A forum

Storm track - Intensity - Wind Radii - Intensity Data - Source Data - All data

Summary Information

Storm ID 1945029S13127
Start Jan 28 23Z
Landfall Feb 2 18Z
Max Intensity 95 kt (Feb 1 18Z), 950 mb (Feb 1 18Z)
End Feb 6 01Z
ATCF IDs ,SH051945
Track status Best track data.

Storm track plot

Map of storm track

Intensity plots

Map of storm track

Radial wind information

No radial wind information for this storm


Position and Intensity Table

BASIN ISO_TIME_________ NATURE LAT LON WMO PRES BOM PRES DS824 WIND DS824 PRES
degrees north degrees east mb mb kts mb
SI 1945-01-28 23:30:00 NR -13.20 126.80 995 995
SI 1945-01-29 00:00:00 NR -13.23 126.75
SI 03:00:00 NR -13.38 126.43
SI 06:00:00 NR -13.54 126.12
SI 09:00:00 NR -13.70 125.81
SI 12:00:00 NR -13.86 125.50
SI 15:00:00 NR -14.03 125.19
SI 18:00:00 NR -14.19 124.89
SI 21:00:00 NR -14.36 124.59
SI 23:00:00 NR -14.41 124.10
SI 1945-01-30 00:00:00 TS -14.37 123.56
SI 01:00:00 TS -14.41 123.29 995 995
SI 03:00:00 TS -14.56 123.05
SI 06:00:00 TS -14.82 122.80
SI 09:00:00 TS -15.10 122.59
SI 11:00:00 TS -15.28 122.44
SI 12:00:00 TS -15.37 122.37
SI 15:00:00 TS -15.65 122.15
SI 18:00:00 TS -15.94 121.91 40 995
SI 21:00:00 TS -16.21 121.65
SI 23:00:00 TS -16.39 121.46
SI 1945-01-31 00:00:00 TS -16.48 121.36
SI 01:00:00 TS -16.56 121.25 995 995
SI 03:00:00 TS -16.73 121.01
SI 06:00:00 TS -16.95 120.62
SI 09:00:00 TS -17.17 120.21
SI 11:00:00 TS -17.30 119.93
SI 12:00:00 TS -17.36 119.78
SI 15:00:00 TS -17.53 119.34
SI 18:00:00 TS -17.71 118.88
SI 21:00:00 TS -17.90 118.40
SI 23:00:00 TS -18.05 118.06
SI 1945-02-01 00:00:00 TS -18.12 117.90
SI 01:00:00 TS -18.20 117.72 980 980
SI 03:00:00 TS -18.35 117.38
SI 06:00:00 TS -18.65 116.75
SI 09:00:00 TS -18.95 116.15
SI 11:00:00 TS -19.16 115.75
SI 12:00:00 TS -19.26 115.53
SI 15:00:00 TS -19.54 115.01
SI 18:00:00 TS -19.87 114.51 95 950
SI 21:00:00 TS -20.26 114.03 95 950
SI 23:00:00 TS -20.56 113.77 95 950
SI 1945-02-02 00:00:00 TS -20.72 113.67 95 950
SI 01:00:00 TS -20.87 113.58 950 950 95 950
SI 03:00:00 TS -21.18 113.45 950 95 950
SI 06:00:00 TS -21.67 113.37 950 950 95 950
SI 09:00:00 TS -22.19 113.40 950 87 956
SI 11:00:00 TS -22.55 113.49 950 82 960
SI 12:00:00 TS -22.73 113.54 950 80 962
SI 13:00:00 TS -22.90 113.59 950 950 77 964
SI 15:00:00 TS -23.24 113.70 950 72 968
SI 18:00:00 TS -23.73 113.90 950 65 975
SI 21:00:00 TS -24.20 114.11 950 950
SI 23:00:00 TS -24.52 114.27 962
SI 1945-02-03 00:00:00 TS -24.67 114.36 968
SI 01:00:00 TS -24.82 114.44 975 975
SI 03:00:00 TS -25.08 114.60
SI 06:00:00 TS -25.40 114.84
SI 09:00:00 TS -25.67 115.05
SI 11:00:00 TS -25.82 115.17
SI 12:00:00 TS -25.89 115.22
SI 15:00:00 TS -26.09 115.35
SI 18:00:00 TS -26.28 115.43 35 996
SI 21:00:00 TS -26.47 115.46
SI 23:00:00 TS -26.59 115.44
SI 1945-02-04 00:00:00 TS -26.66 115.41
SI 01:00:00 TS -26.80 115.40 996 996
SI 03:00:00 TS -27.05 115.33
SI 06:00:00 TS -27.43 115.16
SI 09:00:00 TS -27.87 114.94
SI 11:00:00 TS -28.07 114.76
SI 12:00:00 TS -28.15 114.67
SI 15:00:00 TS -28.33 114.37
SI 18:00:00 TS -28.49 114.07 30 1000
SI 21:00:00 TS -28.68 113.79
SI 23:00:00 TS -28.83 113.64
SI 1945-02-05 00:00:00 TS -28.92 113.57
SI 01:00:00 TS -29.02 113.51 1000 1000
SI 03:00:00 TS -29.25 113.40
SI 06:00:00 TS -29.65 113.30
SI 09:00:00 TS -30.09 113.24
SI 11:00:00 TS -30.41 113.23
SI 12:00:00 TS -30.54 113.24
SI 15:00:00 TS -31.01 113.30
SI 18:00:00 TS -31.48 113.39 20 1004
SI 21:00:00 NR -31.92 113.48
SI 23:00:00 NR -32.30 113.52
SI 1945-02-06 00:00:00 NR -32.50 113.49
SI 01:00:00 NR -32.70 113.50 1004 1004

Source Information

Agency Information
USA bsh051945.txt
TOKYO
CMA
HKO
NEWDELHI
REUNION WMO-Best-Tracks.txt:Line=4324:xxxx945613
BOM IDCKMSTM0S.csv:Line=1214:unnamed
NADI
WELLINGTON
DS824 aus_area.dat:127:NOT NAMED
TD9636 cons_worldwide_trop_cyclone_18710101-19891231-006:Line=2814
TD9635
NEUMANN
MLC

All available IBTrACS Data

SEASON BASIN SUBBASIN ISO_TIME_________ NATURE LAT LON WMO PRES WMO AGENCY DIST2LAND LANDFALL IFLAG USA AGENCY USA ATCF_ID USA LAT USA LON USA SSHS REUNION LAT REUNION LON REUNION TYPE REUNION TNUM BOM LAT BOM LON BOM PRES BOM PRES_METHOD DS824 LAT DS824 LON DS824 STAGE DS824 WIND DS824 PRES TD9636 LAT TD9636 LON TD9636 STAGE STORM SPEED STORM DIR
Year degrees north degrees east mb km km degrees north degrees east 1 degrees north degrees east 1 degrees north degrees east mb degrees north degrees east kts mb degrees north degrees east kts degrees
1945 SI WA 1945-01-28 23:30:00 NR -13.20 126.80 995 bom 68 68 ______O_______ -1 -13.20 126.80 995 7 242
1945 SI WA 1945-01-29 00:00:00 NR -13.23 126.75 70 60 ______P_______ -1 -13.23 126.75 7 243
1945 SI WA 03:00:00 NR -13.38 126.43 67 55 ______P_______ -1 -13.38 126.43 7 243
1945 SI WA 06:00:00 NR -13.54 126.12 55 39 ______P_______ -1 -13.54 126.12 7 242
1945 SI WA 09:00:00 NR -13.70 125.81 46 46 ______P_______ -1 -13.70 125.81 7 242
1945 SI WA 12:00:00 NR -13.86 125.50 46 46 ______P_______ -1 -13.86 125.50 7 241
1945 SI WA 15:00:00 NR -14.03 125.19 54 49 ______P_______ -1 -14.03 125.19 7 241
1945 SI WA 18:00:00 NR -14.19 124.89 55 54 ______P_______ -1 -14.19 124.89 7 240
1945 SI WA 21:00:00 NR -14.36 124.59 68 68 ______P_______ -1 -14.36 124.59 10 255
1945 SI WA 23:00:00 NR -14.41 124.10 116 124 ______P___O___ -1 -14.48 124.39 -14.10 122.90 7 20 270
1945 SI WA 1945-01-30 00:00:00 TS -14.37 123.56 157 165 O_____P___P___ jtwc_sh SH051945 -14.20 122.80 -1 -14.54 124.30 -14.20 122.84 7 23 270
1945 SI WA 01:00:00 TS -14.41 123.29 995 bom 178 178 P_____O___P___ SH051945 -14.30 122.75 -1 -14.60 124.20 995 -14.30 122.79 7 11 249
1945 SI WA 03:00:00 TS -14.56 123.05 187 178 P_____P___P___ SH051945 -14.50 122.66 -1 -14.72 124.01 -14.49 122.67 7 8 228
1945 SI WA 06:00:00 TS -14.82 122.80 184 159 O_____P___P___ jtwc_sh SH051945 -14.80 122.50 -1 -14.91 123.72 -14.79 122.50 7 7 219
1945 SI WA 09:00:00 TS -15.10 122.59 159 140 P_____P___P___ SH051945 -15.10 122.31 -1 -15.10 123.43 -15.10 122.32 7 7 217
1945 SI WA 11:00:00 TS -15.28 122.44 144 134 P_____P___O___ SH051945 -15.30 122.17 -1 -15.23 123.24 -15.30 122.20 7 7 218
1945 SI WA 12:00:00 TS -15.37 122.37 134 116 O_____P___P___ jtwc_sh SH051945 -15.40 122.10 -1 -15.30 123.14 -15.40 122.14 7 7 217
1945 SI WA 15:00:00 TS -15.65 122.15 116 115 P_____P___P___ SH051945 -15.70 121.91 -1 -15.50 122.84 -15.72 121.95 7 7 218
1945 SI WA 18:00:00 TS -15.94 121.91 123 115 O_____P__OP___ jtwc_sh SH051945 -16.00 121.70 -1 -15.70 122.52 -16.10 121.80 TC 40 995 -16.02 121.74 7 7 220
1945 SI WA 21:00:00 TS -16.21 121.65 115 115 P_____P__PP___ SH051945 -16.31 121.47 -1 -15.91 122.19 -16.23 121.37 TC -16.32 121.49 7 7 224
1945 SI WA 23:00:00 TS -16.39 121.46 115 117 P_____P__PO___ SH051945 -16.51 121.30 -1 -16.06 121.95 -16.32 121.09 TC -16.50 121.30 7 8 227
1945 SI WA 1945-01-31 00:00:00 TS -16.48 121.36 117 125 O_____P__PP___ jtwc_sh SH051945 -16.60 121.20 -1 -16.13 121.83 -16.37 120.94 TC -16.59 121.20 7 8 230
1945 SI WA 01:00:00 TS -16.56 121.25 995 bom 129 129 P_____O__PP___ SH051945 -16.69 121.10 -1 -16.20 121.70 995 -16.41 120.80 TC -16.67 121.09 7 8 233
1945 SI WA 03:00:00 TS -16.73 121.01 144 139 P_____P__PP___ SH051945 -16.86 120.87 -1 -16.34 121.43 -16.50 120.51 TC -16.83 120.86 7 9 237
1945 SI WA 06:00:00 TS -16.95 120.62 172 172 O_____P__PP___ jtwc_sh SH051945 -17.10 120.50 -1 -16.55 120.99 -16.65 120.08 TC -17.06 120.49 7 9 240
1945 SI WA 09:00:00 TS -17.17 120.21 206 206 P_____P__PP___ SH051945 -17.31 120.11 -1 -16.77 120.54 -16.81 119.65 TC -17.27 120.08 7 9 242
1945 SI WA 11:00:00 TS -17.30 119.93 235 235 P_____P__PO___ SH051945 -17.44 119.84 -1 -16.92 120.23 -16.92 119.37 TC -17.40 119.80 7 9 244
1945 SI WA 12:00:00 TS -17.36 119.78 241 241 O_____P__PP___ jtwc_sh SH051945 -17.50 119.70 -1 -16.99 120.07 -16.98 119.22 TC -17.46 119.67 7 9 247
1945 SI WA 15:00:00 TS -17.53 119.34 282 268 P_____P__PP___ SH051945 -17.65 119.26 -1 -17.21 119.59 -17.16 118.79 TC -17.62 119.25 7 9 248
1945 SI WA 18:00:00 TS -17.71 118.88 269 254 O_____P__PP___ jtwc_sh SH051945 -17.80 118.80 -1 -17.44 119.10 -17.36 118.35 TC -17.78 118.81 7 10 248
1945 SI WA 21:00:00 TS -17.90 118.40 256 249 P_____P__PP___ SH051945 -17.98 118.31 -1 -17.68 118.62 -17.59 117.92 TC -17.96 118.34 7 10 246
1945 SI WA 23:00:00 TS -18.05 118.06 257 251 P_____P__PO___ SH051945 -18.12 117.97 -1 -17.84 118.31 -17.75 117.63 TC -18.10 118.00 7 11 245
1945 SI WA 1945-02-01 00:00:00 TS -18.12 117.90 256 248 O_____P__PP___ jtwc_sh SH051945 -18.20 117.80 -1 -17.92 118.15 -17.84 117.48 TC -18.18 117.83 7 11 245
1945 SI WA 01:00:00 TS -18.20 117.72 980 bom 249 235 P_____O__PP___ SH051945 -18.27 117.62 -1 -18.00 118.00 980 -17.93 117.34 TC -18.26 117.65 7 11 245
1945 SI WA 03:00:00 TS -18.35 117.38 235 212 P_____P__PP___ SH051945 -18.43 117.26 -1 -18.12 117.71 -18.12 117.04 TC -18.43 117.28 7 12 244
1945 SI WA 06:00:00 TS -18.65 116.75 212 189 O____OP__PP___ jtwc_sh SH051945 -18.70 116.70 -1 -19.40 115.10 99 9.90 -18.29 117.29 -18.42 116.60 TC -18.73 116.71 7 13 243
1945 SI WA 09:00:00 TS -18.95 116.15 189 183 P____PP__PP___ SH051945 -19.03 116.11 -1 -19.40 114.90 99 -18.47 116.87 -18.76 116.16 TC -19.06 116.11 7 13 242
1945 SI WA 11:00:00 TS -19.16 115.75 188 188 P____PP__PO___ SH051945 -19.27 115.71 -1 -19.40 114.77 99 -18.60 116.60 -19.01 115.86 TC -19.30 115.70 7 13 242
1945 SI WA 12:00:00 TS -19.26 115.53 192 192 O____PP__PP___ jtwc_sh SH051945 -19.40 115.50 -1 -19.41 114.71 99 -18.67 116.46 -19.13 115.71 TC -19.42 115.47 7 12 241
1945 SI WA 15:00:00 TS -19.54 115.01 200 191 P____PP__PP___ SH051945 -19.78 114.85 -1 -19.44 114.53 99 -18.90 116.06 -19.55 115.26 TC -19.81 114.75 7 11 237
1945 SI WA 18:00:00 TS -19.87 114.51 198 178 O____PP__OP___ jtwc_sh SH051945 -20.20 114.20 -1 -19.51 114.36 99 -19.18 115.65 -20.00 114.80 TC 95 950 -20.23 114.07 7 12 232
1945 SI WA 21:00:00 TS -20.26 114.03 178 146 P____PP__PP___ SH051945 -20.69 113.52 -1 -19.63 114.22 99 -19.53 115.25 -20.49 114.35 TC 95 950 -20.68 113.49 7 12 225
1945 SI WA 23:00:00 TS -20.56 113.77 146 137 P____PP__PO___ SH051945 -21.03 113.14 -1 -19.74 114.14 99 -19.79 114.97 -20.83 114.10 TC 95 950 -21.00 113.20 7 11 216
1945 SI WA 1945-02-02 00:00:00 TS -20.72 113.67 137 129 O____PP__OP___ jtwc_sh SH051945 -21.20 113.00 -1 -19.81 114.11 99 -19.94 114.84 -21.00 114.00 TC 95 950 -21.16 113.10 7 11 210
1945 SI WA 01:00:00 TS -20.87 113.58 950 bom 119 93 P____PO__PP___ SH051945 -21.36 112.89 -1 -19.89 114.08 99 -20.10 114.70 950 -21.16 113.91 TC 95 950 -21.33 113.02 7 10 205
1945 SI WA 03:00:00 TS -21.18 113.45 99 65 P____PP__PP___ SH051945 -21.69 112.78 -1 -20.06 114.04 99 -20.45 114.39 950 -21.49 113.78 TC 95 950 -21.68 112.92 7 10 194
1945 SI WA 06:00:00 TS -21.67 113.37 950 bom 65 42 O____OO__OP___ jtwc_sh SH051945 -22.20 112.80 -1 -20.40 114.00 99 9.90 -21.00 114.00 950 -22.00 113.70 TC 95 950 -22.21 112.89 7 10 182
1945 SI WA 09:00:00 TS -22.19 113.40 42 15 P____PP__PP___ SH051945 -22.75 112.95 -1 -20.83 114.01 99 -21.53 113.77 950 -22.55 113.75 TC 87 956 -22.75 112.99 7 11 173
1945 SI WA 11:00:00 TS -22.55 113.49 15 10 P____PP__PO___ SH051945 -23.12 113.11 -1 -21.15 114.04 99 -21.87 113.71 950 -22.94 113.85 TC 82 960 -23.10 113.10 7 11 167
1945 SI WA 12:00:00 TS -22.73 113.54 15 15 O____PP__PP___ jtwc_sh SH051945 -23.30 113.20 -1 -21.33 114.06 99 -22.04 113.70 950 -23.13 113.92 TC 80 962 -23.27 113.14 7 11 165
1945 SI WA 13:00:00 TS -22.90 113.59 950 bom 20 10 P____PO__PP___ SH051945 -23.48 113.28 -1 -21.50 114.08 99 -22.20 113.70 950 -23.32 114.00 TC 77 964 -23.45 113.20 7 11 164
1945 SI WA 15:00:00 TS -23.24 113.70 10 0 P____PP__PP___ SH051945 -23.82 113.44 -1 -21.87 114.14 99 -22.46 113.69 950 -23.69 114.16 TC 72 968 -23.79 113.33 7 11 161
1945 SI WA 18:00:00 TS -23.73 113.90 0 0 O____PP__OP___ jtwc_sh SH051945 -24.30 113.70 -1 -22.44 114.24 99 -22.85 113.78 950 -24.20 114.40 TC 65 975 -24.29 113.59 7 10 158
1945 SI WA 21:00:00 TS -24.20 114.11 950 bom 0 0 P____PO__PP___ SH051945 -24.73 113.94 -1 -23.00 114.35 99 -23.40 114.00 950 4 -24.61 114.56 TC -24.73 113.89 7 10 157
1945 SI WA 23:00:00 TS -24.52 114.27 0 0 P____PP__PO___ SH051945 -24.98 114.11 -1 -23.36 114.44 99 -23.94 114.24 962 -24.85 114.65 TC -25.00 114.10 7 10 155
1945 SI WA 1945-02-03 00:00:00 TS -24.67 114.36 0 0 O____PP__PP___ jtwc_sh SH051945 -25.10 114.20 -1 -23.53 114.48 99 -24.22 114.37 968 -24.96 114.70 TC -25.12 114.20 7 10 153
1945 SI WA 01:00:00 TS -24.82 114.44 975 bom 0 0 P____PO__PP___ SH051945 -25.21 114.29 -1 -23.70 114.52 99 -24.50 114.50 975 -25.07 114.74 TC -25.23 114.30 7 9 151
1945 SI WA 03:00:00 TS -25.08 114.60 0 0 P____PP__PP___ SH051945 -25.42 114.49 -1 -24.01 114.59 99 -24.93 114.71 -25.26 114.82 TC -25.44 114.52 7 8 148
1945 SI WA 06:00:00 TS -25.40 114.84 0 0 O____OP__PP___ jtwc_sh SH051945 -25.70 114.80 -1 -24.40 114.70 99 9.90 -25.40 114.97 -25.52 114.92 TC -25.70 114.83 7 7 146
1945 SI WA 09:00:00 TS -25.67 115.05 0 0 P____PP__PP___ SH051945 -25.96 115.12 -1 -24.69 114.79 99 -25.72 115.15 -25.75 114.99 TC -25.94 115.13 7 6 144
1945 SI WA 11:00:00 TS -25.82 115.17 0 0 P____PP__PO___ SH051945 -26.12 115.31 -1 -24.84 114.83 99 -25.86 115.23 -25.89 115.02 TC -26.10 115.30 7 5 145
1945 SI WA 12:00:00 TS -25.89 115.22 0 0 O____PP__PP___ jtwc_sh SH051945 -26.20 115.40 -1 -24.90 114.85 99 -25.91 115.26 -25.96 115.03 TC -26.19 115.39 7 5 148
1945 SI WA 15:00:00 TS -26.09 115.35 0 0 P____PP__PP___ SH051945 -26.45 115.64 -1 -25.02 114.90 99 -26.04 115.30 -26.18 115.03 TC -26.44 115.62 7 4 154
1945 SI WA 18:00:00 TS -26.28 115.43 0 0 O____PP__OP___ jtwc_sh SH051945 -26.70 115.80 -1 -25.07 114.94 99 -26.13 115.28 -26.40 115.00 TC 35 996 -26.68 115.79 7 4 167
1945 SI WA 21:00:00 TS -26.47 115.46 0 0 P____PP__PP___ SH051945 -26.95 115.90 -1 -25.08 114.96 99 -26.25 115.19 -26.65 114.90 TC -26.93 115.89 7 4 0
1945 SI WA 23:00:00 TS -26.59 115.44 0 0 P____PP__PO___ SH051945 -27.12 115.91 -1 -25.06 114.98 99 -26.35 115.11 -26.82 114.80 TC -27.10 115.90 7 4 193
1945 SI WA 1945-02-04 00:00:00 TS -26.66 115.41 0 0 O____PP__PP___ jtwc_sh SH051945 -27.20 115.90 -1 -25.04 114.98 99 -26.42 115.06 -26.91 114.74 TC -27.20 115.90 7 6 192
1945 SI WA 01:00:00 TS -26.80 115.40 996 bom 0 0 P____PO__PP___ SH051945 -27.28 115.88 -1 -25.02 114.98 99 -26.50 115.00 996 -26.99 114.69 TC -27.29 115.88 7 8 189
1945 SI WA 03:00:00 TS -27.05 115.33 0 0 P____PP__PP___ SH051945 -27.44 115.79 -1 -24.98 114.99 99 -26.76 114.87 -27.17 114.56 TC -27.49 115.81 7 8 199
1945 SI WA 06:00:00 TS -27.43 115.16 0 0 O____OP__PP___ jtwc_sh SH051945 -27.70 115.60 -1 -24.90 115.00 99 9.90 -27.17 114.62 -27.43 114.36 TC -27.78 115.64 7 9 203
1945 SI WA 09:00:00 TS -27.87 114.94 0 0 P_____P__PP___ SH051945 -28.02 115.39 -1 99 -27.56 114.36 -27.71 114.15 TC -28.05 115.40 7 9 209
1945 SI WA 11:00:00 TS -28.07 114.76 bom 0 0 P_____O__PO___ SH051945 -28.22 115.21 -1 99 -27.80 114.20 -27.91 114.01 TC -28.20 115.20 7 7 220
1945 SI WA 12:00:00 TS -28.15 114.67 0 0 O_____P__PP___ jtwc_sh SH051945 -28.30 115.10 -1 99 -27.89 114.13 -28.01 113.94 TC -28.25 115.09 7 7 233
1945 SI WA 15:00:00 TS -28.33 114.37 0 0 P_____P__PP___ SH051945 -28.42 114.71 -1 99 -28.12 113.96 -28.34 113.75 TC -28.36 114.71 7 6 237
1945 SI WA 18:00:00 TS -28.49 114.07 36 44 O_____P__OP___ jtwc_sh SH051945 -28.50 114.30 -1 99 -28.31 113.82 -28.70 113.60 TC 30 1000 -28.45 114.31 7 6 236
1945 SI WA 21:00:00 TS -28.68 113.79 71 71 P_____P__PP___ SH051945 -28.61 113.92 -1 99 -28.50 113.71 -29.09 113.49 TC -28.58 113.92 7 6 228
1945 SI WA 23:00:00 TS -28.83 113.64 93 93 P_____P__PO___ SH051945 -28.72 113.70 -1 99 -28.64 113.65 -29.37 113.43 TC -28.70 113.70 7 6 218
1945 SI WA 1945-02-05 00:00:00 TS -28.92 113.57 97 97 O_____P__PP___ jtwc_sh SH051945 -28.80 113.60 -1 99 -28.71 113.62 -29.52 113.41 TC -28.78 113.61 7 7 211
1945 SI WA 01:00:00 TS -29.02 113.51 1000 bom 109 109 P_____O__PP___ SH051945 -28.89 113.51 -1 99 -28.80 113.60 1000 -29.67 113.40 TC -28.88 113.52 7 7 204
1945 SI WA 03:00:00 TS -29.25 113.40 129 129 P_____P__PP___ SH051945 -29.10 113.36 -1 99 -29.00 113.56 -29.97 113.37 TC -29.09 113.37 7 8 196
1945 SI WA 06:00:00 TS -29.65 113.30 161 161 O_____P__PP___ jtwc_sh SH051945 -29.50 113.20 -1 -29.36 113.51 -30.45 113.36 TC -29.46 113.20 7 9 190
1945 SI WA 09:00:00 TS -30.09 113.24 173 173 P_____P__PP___ SH051945 -29.93 113.11 -1 -29.78 113.48 -30.95 113.38 TC -29.89 113.11 7 9 185
1945 SI WA 11:00:00 TS -30.41 113.23 178 178 P_____P__PO___ SH051945 -30.24 113.09 -1 -30.09 113.47 -31.29 113.40 TC -30.20 113.10 7 9 0
1945 SI WA 12:00:00 TS -30.54 113.24 181 172 O_____P__PP___ jtwc_sh SH051945 -30.40 113.10 -1 -30.26 113.47 -31.46 113.41 TC -30.36 113.11 7 9 175
1945 SI WA 15:00:00 TS -31.01 113.30 180 180 P_____P__PP___ SH051945 -30.90 113.18 -1 -30.78 113.46 -31.98 113.45 TC -30.87 113.18 7 9 172
1945 SI WA 18:00:00 TS -31.48 113.39 192 192 O_____P__OP___ jtwc_sh SH051945 -31.40 113.30 -1 -31.33 113.47 -32.50 113.50 TC 20 1004 -31.39 113.31 7 9 171
1945 SI WA 21:00:00 NR -31.92 113.48 200 200 ______P___P___ SH051945 -1 -31.91 113.48 TC -31.94 113.48 7 10 173
1945 SI WA 23:00:00 NR -32.30 113.52 201 185 ______P___O___ SH051945 -1 -32.30 113.49 TC -32.30 113.60 7 12 0
1945 SI WA 1945-02-06 00:00:00 NR -32.50 113.49 185 171 ______P_______ -1 -32.50 113.49 TC 7 12 182
1945 SI WA 01:00:00 NR -32.70 113.50 1004 bom 171 ______O_______ -1 -32.70 113.50 1004 TC 7 12 0